Celebrity Century — 9HJI9 — position and weather

sailwx.info

Track history (hours):
 
Tides and Currents Weather Stations Pressure Air Temp Water Temp Dewpoint Dewpoint Depression Visibility Wind Speed Wind Dir Waves Ship Positions

Celebrity Century

Last reported at 2014-Sep-16 14:33 UTC. Time now 2014-Sep-16 21:31 UTC.
Position N 37°48' W 122°24'.

Length 250 m; draft 8.1 m.

Type: Ship. MMSI: 249054000.

Date/timePositionNaut miles runAvg speedWind from/ knotsBaromVisibWave heightAir tempDewpointWater temp
2014-Sep-16 14:33N 37°48' W 122°24'0 0.0
2014-Sep-16 13:33N 37°48' W 122°24'0 0.0
2014-Sep-16 12:33N 37°48' W 122°24'6 6.2
2014-Sep-16 11:34N 37°48' W 122°32'1414.3
2014-Sep-16 10:34N 37°48' W 122°50'1818.0
2014-Sep-16 09:34N 37°57' W 123°10'1818.2
2014-Sep-16 08:33N 38°10' W 123°26'1818.2
2014-Sep-16 07:33N 38°21' W 123°45'1818.3
2014-Sep-16 06:33N 38°33' W 124°02'1817.7
2014-Sep-16 05:33N 38°48' W 124°14'32916.3
2014-Sep-15 09:21N 44°16' W 125°00'1316.7
2014-Sep-15 08:33N 44°29' W 124°59'1615.9
2014-Sep-15 07:33N 44°44' W 124°52'1717.0
2014-Sep-15 06:33N 45°01' W 124°49'1716.8
2014-Sep-15 05:33N 45°17' W 124°46'1717.2
2014-Sep-15 04:33N 45°34' W 124°42'1716.7
2014-Sep-15 03:33N 45°51' W 124°38'1716.6
2014-Sep-15 02:33N 46°06' W 124°28'1313.1
2014-Sep-15 01:34N 46°12' W 124°11'1211.7
2014-Sep-15 00:34N 46°11' W 123°54'2 1.9
2014-Sep-14 23:33N 46°11' W 123°51'0 0.0
2014-Sep-14 22:33N 46°11' W 123°51'0 0.0
2014-Sep-14 21:33N 46°11' W 123°51'0 0.0
2014-Sep-14 20:33N 46°11' W 123°51'0 0.0
2014-Sep-14 19:33N 46°11' W 123°51'0 0.0
2014-Sep-14 18:33N 46°11' W 123°51'0 0.0
2014-Sep-14 17:33N 46°11' W 123°51'0 0.0
2014-Sep-14 16:33N 46°11' W 123°51'0 0.0
2014-Sep-14 15:33N 46°11' W 123°51'0 0.0
2014-Sep-14 14:33N 46°11' W 123°51'4 4.4
2014-Sep-14 13:34N 46°13' W 123°57'1212.0
2014-Sep-14 12:34N 46°14' W 124°15'1817.8
2014-Sep-14 11:33N 46°29' W 124°29'7117.9
2014-Sep-14 07:34N 47°34' W 125°12'5717.7
2014-Sep-14 04:19N 48°31' W 124°60'3618.9
2014-Sep-14 02:24N 48°21' W 124°07'1518.3
2014-Sep-14 01:33N 48°16' W 123°45'17 2.3
2014-Sep-13 18:20N 48°25' W 123°23'0 0.0
2014-Sep-13 14:14N 48°25' W 123°23'0 0.1
2014-Sep-13 13:33N 48°25' W 123°23'9 8.9
2014-Sep-13 12:33N 48°16' W 123°26'1313.1
2014-Sep-13 11:33N 48°14' W 123°45'1413.9
2014-Sep-13 10:33N 48°16' W 124°06'1514.9
2014-Sep-13 09:33N 48°23' W 124°26'1414.0
2014-Sep-13 08:34N 48°29' W 124°45'1313.3
2014-Sep-13 07:33N 48°28' W 125°05'1413.9
2014-Sep-13 06:33N 48°32' W 125°25'1413.9
2014-Sep-13 05:33N 48°37' W 125°45'1414.3
2014-Sep-13 04:33N 48°46' W 126°02'1414.4
2014-Sep-13 03:34N 48°54' W 126°20'1413.7
2014-Sep-13 02:33N 49°03' W 126°36'1414.3
2014-Sep-13 01:33N 49°11' W 126°54'1414.2
2014-Sep-13 00:33N 49°20' W 127°12'1514.2
2014-Sep-12 23:30N 49°29' W 127°30'  
2014-Sep-09 06:31N 58°09' W 135°16'10 1.1
2014-Sep-08 21:33N 58°14' W 135°32'1717.2
2014-Sep-08 20:33N 58°20' W 136°03'32710.0
2014-Sep-07 12:00N 53°42' W 130°54'45137.6 060 / 41014.0 14.014.014.0
2014-Sep-07 00:00N 50°12' W 120°06'   340 / 211015.0 19.019.018.0
Track history (hours):
 
Tides and Currents Weather Stations Pressure Air Temp Water Temp Dewpoint Dewpoint Depression Visibility Wind Speed Wind Dir Waves Ship Positions

Celebrity Century

Last reported at 2014-Sep-16 14:33 UTC. Time now 2014-Sep-16 21:31 UTC.
Position N 37°48' W 122°24'.

Length 250 m; draft 8.1 m.

Type: Ship. MMSI: 249054000.

Date/timePositionNaut miles runAvg speedWind from/ knotsBaromVisibWave heightAir tempDewpointWater temp
2014-Sep-16 14:33N 37°48' W 122°24'0 0.0
2014-Sep-16 13:33N 37°48' W 122°24'0 0.0
2014-Sep-16 12:33N 37°48' W 122°24'6 6.2
2014-Sep-16 11:34N 37°48' W 122°32'1414.3
2014-Sep-16 10:34N 37°48' W 122°50'1818.0
2014-Sep-16 09:34N 37°57' W 123°10'1818.2
2014-Sep-16 08:33N 38°10' W 123°26'1818.2
2014-Sep-16 07:33N 38°21' W 123°45'1818.3
2014-Sep-16 06:33N 38°33' W 124°02'1817.7
2014-Sep-16 05:33N 38°48' W 124°14'32916.3
2014-Sep-15 09:21N 44°16' W 125°00'1316.7
2014-Sep-15 08:33N 44°29' W 124°59'1615.9
2014-Sep-15 07:33N 44°44' W 124°52'1717.0
2014-Sep-15 06:33N 45°01' W 124°49'1716.8
2014-Sep-15 05:33N 45°17' W 124°46'1717.2
2014-Sep-15 04:33N 45°34' W 124°42'1716.7
2014-Sep-15 03:33N 45°51' W 124°38'1716.6
2014-Sep-15 02:33N 46°06' W 124°28'1313.1
2014-Sep-15 01:34N 46°12' W 124°11'1211.7
2014-Sep-15 00:34N 46°11' W 123°54'2 1.9
2014-Sep-14 23:33N 46°11' W 123°51'0 0.0
2014-Sep-14 22:33N 46°11' W 123°51'0 0.0
2014-Sep-14 21:33N 46°11' W 123°51'0 0.0
2014-Sep-14 20:33N 46°11' W 123°51'0 0.0
2014-Sep-14 19:33N 46°11' W 123°51'0 0.0
2014-Sep-14 18:33N 46°11' W 123°51'0 0.0
2014-Sep-14 17:33N 46°11' W 123°51'0 0.0
2014-Sep-14 16:33N 46°11' W 123°51'0 0.0
2014-Sep-14 15:33N 46°11' W 123°51'0 0.0
2014-Sep-14 14:33N 46°11' W 123°51'4 4.4
2014-Sep-14 13:34N 46°13' W 123°57'1212.0
2014-Sep-14 12:34N 46°14' W 124°15'1817.8
2014-Sep-14 11:33N 46°29' W 124°29'7117.9
2014-Sep-14 07:34N 47°34' W 125°12'5717.7
2014-Sep-14 04:19N 48°31' W 124°60'3618.9
2014-Sep-14 02:24N 48°21' W 124°07'1518.3
2014-Sep-14 01:33N 48°16' W 123°45'17 2.3
2014-Sep-13 18:20N 48°25' W 123°23'0 0.0
2014-Sep-13 14:14N 48°25' W 123°23'0 0.1
2014-Sep-13 13:33N 48°25' W 123°23'9 8.9
2014-Sep-13 12:33N 48°16' W 123°26'1313.1
2014-Sep-13 11:33N 48°14' W 123°45'1413.9
2014-Sep-13 10:33N 48°16' W 124°06'1514.9
2014-Sep-13 09:33N 48°23' W 124°26'1414.0
2014-Sep-13 08:34N 48°29' W 124°45'1313.3
2014-Sep-13 07:33N 48°28' W 125°05'1413.9
2014-Sep-13 06:33N 48°32' W 125°25'1413.9
2014-Sep-13 05:33N 48°37' W 125°45'1414.3
2014-Sep-13 04:33N 48°46' W 126°02'1414.4
2014-Sep-13 03:34N 48°54' W 126°20'1413.7
2014-Sep-13 02:33N 49°03' W 126°36'1414.3
2014-Sep-13 01:33N 49°11' W 126°54'1414.2
2014-Sep-13 00:33N 49°20' W 127°12'1514.2
2014-Sep-12 23:30N 49°29' W 127°30'  
2014-Sep-09 06:31N 58°09' W 135°16'10 1.1
2014-Sep-08 21:33N 58°14' W 135°32'1717.2
2014-Sep-08 20:33N 58°20' W 136°03'32710.0
2014-Sep-07 12:00N 53°42' W 130°54'45137.6 060 / 41014.0 14.014.014.0
2014-Sep-07 00:00N 50°12' W 120°06'   340 / 211015.0 19.019.018.0

Dump ship's entire track history